createdAt,value
2018-03-25T18:10:23.054Z,4.30
2018-03-25T18:12:52.524Z,4.57
2018-03-25T18:15:20.855Z,4.77
2018-03-25T18:17:49.103Z,5.47
2018-03-25T18:20:17.352Z,5.20
2018-03-25T18:22:46.376Z,4.10
2018-03-25T18:25:15.393Z,9.23
2018-03-25T18:27:43.638Z,5.43
2018-03-25T18:30:12.652Z,5.03
2018-03-25T18:32:40.919Z,5.33
2018-03-25T18:35:09.924Z,3.95
2018-03-25T18:37:38.936Z,4.27
2018-03-25T18:40:07.175Z,4.37
2018-03-25T18:42:35.437Z,4.00
2018-03-25T18:45:03.675Z,4.37
2018-03-25T18:47:32.877Z,4.60
2018-03-25T18:50:01.113Z,4.23
2018-03-25T18:52:29.367Z,4.40
2018-03-25T18:54:57.614Z,4.43
2018-03-25T18:57:25.849Z,4.80
2018-03-25T18:59:54.101Z,5.03
2018-03-25T19:02:22.340Z,8.37
2018-03-25T19:04:50.588Z,8.13
2018-03-25T19:07:18.841Z,9.55
2018-03-25T19:09:47.101Z,7.87
2018-03-25T19:12:15.344Z,7.57
2018-03-25T19:14:44.364Z,6.43
2018-03-25T19:17:12.616Z,7.07
2018-03-25T19:19:40.868Z,6.57
2018-03-25T19:22:09.120Z,6.27
2018-03-25T19:24:37.360Z,5.80
2018-03-25T19:27:06.380Z,6.30
2018-03-25T19:29:34.629Z,5.93
2018-03-25T19:32:02.912Z,6.83
2018-03-25T19:34:31.116Z,9.60
2018-03-25T19:36:59.372Z,10.15
2018-03-25T19:39:27.616Z,9.10
2018-03-25T19:41:55.879Z,10.90
2018-03-25T19:44:24.131Z,8.17
2018-03-25T19:46:53.142Z,7.50
2018-03-25T19:49:21.400Z,8.40
2018-03-25T19:51:50.422Z,8.57
2018-03-25T19:54:18.670Z,7.73
2018-03-25T19:56:46.917Z,7.97
2018-03-25T19:59:15.161Z,8.00
2018-03-25T20:01:43.404Z,8.63
2018-03-25T20:04:11.673Z,8.77
2018-03-25T20:06:39.912Z,7.85
2018-03-25T20:09:08.158Z,6.23
2018-03-25T20:11:37.175Z,6.13
2018-03-25T20:14:05.430Z,5.87
2018-03-25T20:16:33.675Z,6.70
2018-03-25T20:19:01.935Z,6.50
2018-03-25T20:21:30.184Z,6.40
2018-03-25T20:23:59.214Z,5.90
2018-03-25T20:26:27.468Z,7.97
2018-03-25T20:28:56.588Z,7.97
2018-03-25T20:31:24.843Z,7.90
2018-03-25T20:33:53.973Z,7.00
2018-03-25T20:36:22.240Z,7.40
2018-03-25T20:38:50.482Z,7.33
2018-03-25T20:41:18.723Z,8.47
2018-03-25T20:43:46.980Z,7.50
2018-03-25T20:46:15.220Z,7.13
2018-03-25T20:48:43.481Z,7.17
2018-03-25T20:51:11.725Z,7.50
2018-03-25T20:53:39.962Z,7.57
2018-03-25T20:56:08.216Z,7.93
2018-03-25T20:58:36.491Z,8.10
2018-03-25T21:01:04.725Z,7.80
2018-03-25T21:03:33.741Z,9.03
2018-03-25T21:06:01.992Z,8.93
2018-03-25T21:08:31.024Z,9.20
2018-03-25T21:10:59.486Z,7.53
2018-03-25T21:13:28.492Z,7.73
2018-03-25T21:15:56.751Z,6.68
2018-03-25T21:18:25.761Z,7.17
2018-03-25T21:20:54.780Z,7.90
2018-03-25T21:23:23.037Z,7.73
2018-03-25T21:25:52.069Z,7.30
2018-03-25T21:28:20.568Z,8.20
2018-03-25T21:30:48.824Z,8.00
2018-03-25T21:33:17.064Z,8.87
2018-03-25T21:35:46.081Z,9.13
2018-03-25T21:38:14.336Z,9.40
2018-03-25T21:40:42.600Z,9.63
2018-03-25T21:43:10.848Z,10.20
2018-03-25T21:45:39.103Z,10.17
2018-03-25T21:48:07.464Z,10.00
2018-03-25T21:50:36.476Z,9.80
2018-03-25T21:53:05.491Z,9.40
2018-03-25T21:55:33.750Z,10.47
2018-03-25T21:58:02.774Z,9.67
2018-03-25T22:00:31.022Z,10.60
2018-03-25T22:03:05.864Z,9.60
2018-03-25T22:05:34.871Z,8.77
2018-03-25T22:08:03.140Z,9.33
2018-03-25T22:10:31.396Z,8.90
2018-03-25T22:12:59.648Z,9.67
2018-03-25T22:15:27.921Z,9.57
2018-03-25T22:17:56.165Z,9.63
2018-03-25T22:20:25.184Z,9.93
2018-03-25T22:22:53.433Z,10.07
2018-03-25T22:25:22.455Z,10.43
2018-03-25T22:27:50.714Z,10.30
2018-03-25T22:30:19.729Z,10.53
2018-03-25T22:32:48.000Z,11.40
2018-03-25T22:35:16.270Z,12.03
2018-03-25T22:37:45.281Z,11.73
2018-03-25T22:40:13.543Z,12.23
2018-03-25T22:42:42.552Z,11.27
2018-03-25T22:45:11.569Z,11.30
2018-03-25T22:47:39.834Z,12.07
2018-03-25T22:50:08.846Z,12.17
2018-03-25T22:52:37.101Z,11.53
2018-03-25T22:55:06.118Z,11.55
2018-03-25T22:57:34.373Z,11.47
2018-03-25T23:00:03.397Z,11.87
2018-03-25T23:02:31.668Z,11.60
2018-03-25T23:05:00.990Z,10.90
2018-03-25T23:07:29.229Z,10.63
2018-03-25T23:09:57.488Z,9.37
2018-03-25T23:12:25.983Z,11.10
2018-03-25T23:14:54.220Z,9.63
2018-03-25T23:17:22.461Z,9.98
2018-03-25T23:19:51.484Z,9.18
2018-03-25T23:22:19.751Z,9.50
2018-03-25T23:24:48.773Z,9.13
2018-03-25T23:27:17.017Z,11.15
2018-03-25T23:29:46.041Z,9.57
2018-03-25T23:32:14.308Z,9.90
2018-03-25T23:34:43.319Z,10.10
2018-03-25T23:37:11.582Z,11.20
2018-03-25T23:39:40.591Z,10.90
2018-03-25T23:42:08.861Z,11.93
2018-03-25T23:44:37.885Z,10.50
2018-03-25T23:47:06.115Z,9.17
2018-03-25T23:49:34.391Z,9.03
2018-03-25T23:52:02.644Z,8.73
2018-03-25T23:54:30.882Z,10.97
2018-03-25T23:56:59.908Z,11.80
2018-03-25T23:59:28.164Z,9.90
